Terminal Aerodrome Forecast
Issued by NWS Memphis, TN

Home | Current Version | Previous Version | Text Only | Print | Product List | Glossary On
Versions: 1 2 3 4 5 6 7 8 9 10 11 12 13
000
FTUS44 KMEG 280613 AAA
TAFMKL
TAF AMD
KMKL 280613Z 2806/2906 00000KT 1 1/2SM BR SKC
      TEMPO 2808/2812 1/2SM FG
     FM281600 15005KT P6SM SCT050
     FM290100 00000KT P6SM FEW050=

USA.gov is the U.S. government's official web portal to all federal, state and local government web resources and services.